Time;durP1;ratioP1;P1;durP2;ratioP2;P2;SDS_P1;SDS_P2;PMS_P1;PMS_P2;Temp;Humidity;BMP_temperature;BMP_pressure;BME280_temperature;BME280_humidity;BME280_pressure;Samples;Min_cycle;Max_cycle;Signal;HPM_P1;HPM_P2
2020/12/12 00:00:43;;;;;;;16.00;10.80;;;4.50;93.60;;;;;;2062203;28;20031;-80
2020/12/12 00:01:47;;;;;;;15.70;10.68;;;4.50;93.60;;;;;;2067497;28;20117;-80
2020/12/12 00:02:49;;;;;;;16.27;10.70;;;4.50;93.60;;;;;;2062322;28;20062;-79
2020/12/12 00:03:49;;;;;;;16.27;10.70;;;4.50;93.60;;;;;;2071977;28;20035;-79
2020/12/12 00:04:50;;;;;;;16.80;11.10;;;4.50;93.60;;;;;;2048728;28;20077;-79
2020/12/12 00:05:50;;;;;;;15.13;10.57;;;4.50;93.60;;;;;;2057092;28;20027;-79
2020/12/12 00:06:51;;;;;;;15.27;10.35;;;4.50;93.60;;;;;;2056364;28;20031;-79
2020/12/12 00:07:51;;;;;;;15.55;10.43;;;4.50;93.70;;;;;;2046269;28;20035;-80
2020/12/12 00:08:52;;;;;;;18.30;11.15;;;4.50;93.60;;;;;;2053189;28;20026;-80
2020/12/12 00:09:53;;;;;;;18.98;11.40;;;4.50;93.60;;;;;;2063383;28;20033;-80
2020/12/12 00:10:53;;;;;;;17.48;11.27;;;4.50;93.60;;;;;;2063773;28;20034;-79
2020/12/12 00:11:54;;;;;;;16.88;10.68;;;4.50;93.60;;;;;;2064042;28;20112;-80
2020/12/12 00:12:55;;;;;;;17.92;11.82;;;4.60;93.70;;;;;;2050982;28;20031;-79
2020/12/12 00:13:55;;;;;;;18.92;12.07;;;4.60;93.70;;;;;;2047956;28;20118;-80
2020/12/12 00:14:56;;;;;;;18.00;12.30;;;4.50;93.60;;;;;;2048799;28;20038;-79
2020/12/12 00:15:57;;;;;;;17.48;11.18;;;4.60;93.70;;;;;;2056780;28;20019;-80
2020/12/12 00:16:57;;;;;;;16.33;11.43;;;4.60;93.70;;;;;;2055199;28;20031;-80
2020/12/12 00:17:58;;;;;;;16.00;10.60;;;4.50;93.70;;;;;;2061038;28;20524;-80
2020/12/12 00:18:59;;;;;;;14.23;10.65;;;4.60;93.70;;;;;;2056775;28;20027;-80
2020/12/12 00:19:59;;;;;;;16.55;11.35;;;4.60;93.70;;;;;;2052440;28;20386;-80
2020/12/12 00:21:00;;;;;;;15.85;10.93;;;4.60;93.70;;;;;;2051155;28;20165;-79
2020/12/12 00:22:01;;;;;;;14.90;10.05;;;4.60;93.70;;;;;;2050605;28;20031;-80
2020/12/12 00:23:02;;;;;;;16.83;11.25;;;4.60;93.70;;;;;;2056875;28;20050;-80
2020/12/12 00:24:02;;;;;;;16.30;10.52;;;4.60;93.70;;;;;;2051188;28;20023;-80
2020/12/12 00:25:04;;;;;;;15.27;10.80;;;4.60;93.70;;;;;;2049043;28;20050;-81
2020/12/12 00:26:05;;;;;;;15.90;11.15;;;4.60;93.70;;;;;;2048893;28;20071;-82
2020/12/12 00:27:06;;;;;;;16.58;11.57;;;4.60;93.70;;;;;;2061107;28;20058;-81
2020/12/12 00:28:06;;;;;;;16.25;11.15;;;4.60;93.70;;;;;;2053305;28;20136;-80
2020/12/12 00:29:07;;;;;;;15.50;11.13;;;4.60;94.00;;;;;;2056022;29;20038;-81
2020/12/12 00:30:08;;;;;;;16.45;10.95;;;4.60;93.70;;;;;;2062487;28;20038;-80
2020/12/12 00:31:08;;;;;;;18.85;12.82;;;4.60;93.70;;;;;;2055128;28;20031;-80
2020/12/12 00:32:09;;;;;;;18.60;12.55;;;4.60;93.70;;;;;;2058041;28;20027;-81
2020/12/12 00:33:10;;;;;;;19.30;13.07;;;4.60;93.70;;;;;;2062926;28;20054;-80
2020/12/12 00:34:11;;;;;;;18.15;11.95;;;4.60;93.70;;;;;;2063963;28;20026;-79
2020/12/12 00:35:11;;;;;;;17.73;12.00;;;4.60;94.00;;;;;;2064159;28;20042;-81
2020/12/12 00:36:12;;;;;;;17.27;11.80;;;4.60;93.70;;;;;;2064401;28;20026;-79
2020/12/12 00:37:13;;;;;;;18.67;12.35;;;4.60;93.70;;;;;;2063482;28;20018;-80
2020/12/12 00:38:13;;;;;;;19.27;12.45;;;4.60;93.70;;;;;;2048828;28;20113;-80
2020/12/12 00:39:14;;;;;;;17.63;11.82;;;4.60;93.70;;;;;;2039755;29;20127;-80
2020/12/12 00:40:15;;;;;;;20.08;13.13;;;4.60;93.70;;;;;;2032464;29;20036;-80
2020/12/12 00:41:16;;;;;;;19.02;12.60;;;4.60;93.70;;;;;;2025700;29;20027;-80
2020/12/12 00:42:16;;;;;;;18.13;12.25;;;4.60;93.70;;;;;;2047033;29;20046;-80
2020/12/12 00:43:17;;;;;;;19.38;12.77;;;4.60;93.70;;;;;;2056147;28;20054;-80
2020/12/12 00:44:17;;;;;;;18.65;12.55;;;4.60;93.70;;;;;;2045711;29;20393;-80
2020/12/12 00:45:18;;;;;;;18.13;11.70;;;4.60;93.70;;;;;;2041489;28;20039;-81
2020/12/12 00:46:19;;;;;;;17.23;12.27;;;4.60;93.70;;;;;;2054922;28;20460;-80
2020/12/12 00:47:19;;;;;;;16.75;11.52;;;4.70;93.70;;;;;;2048253;29;20031;-81
2020/12/12 00:48:20;;;;;;;17.08;11.60;;;4.60;93.70;;;;;;2048239;28;20058;-81
2020/12/12 00:49:20;;;;;;;19.63;13.15;;;4.60;93.70;;;;;;2055418;28;20093;-81
2020/12/12 00:50:23;;;;;;;18.05;12.82;;;4.60;93.70;;;;;;2046558;28;20027;-80
2020/12/12 00:51:24;;;;;;;17.40;12.35;;;4.60;93.70;;;;;;2040081;28;20039;-81
2020/12/12 00:52:24;;;;;;;20.73;13.63;;;4.70;93.70;;;;;;2046421;28;20413;-81
2020/12/12 00:53:25;;;;;;;17.33;12.40;;;4.70;93.70;;;;;;2040962;28;20044;-81
2020/12/12 00:54:26;;;;;;;18.85;12.73;;;4.60;93.70;;;;;;2048504;28;20019;-81
2020/12/12 00:55:27;;;;;;;19.13;11.85;;;4.70;93.70;;;;;;2051785;28;20027;-81
2020/12/12 00:56:27;;;;;;;17.45;11.80;;;4.70;93.70;;;;;;2040754;29;20040;-81
2020/12/12 00:57:28;;;;;;;17.45;12.27;;;4.70;93.80;;;;;;2039866;29;20028;-81
2020/12/12 00:58:29;;;;;;;19.67;12.45;;;4.70;93.70;;;;;;2048325;28;20449;-81
2020/12/12 00:59:29;;;;;;;17.63;12.20;;;4.70;93.70;;;;;;2055785;28;20489;-82
2020/12/12 01:00:33;;;;;;;16.85;11.80;;;4.70;93.70;;;;;;2053552;28;20061;-81
2020/12/12 01:01:33;;;;;;;17.42;11.45;;;4.70;93.70;;;;;;2048406;28;20027;-81
2020/12/12 01:02:35;;;;;;;18.15;12.32;;;4.70;93.70;;;;;;2050735;28;20428;-81
2020/12/12 01:03:36;;;;;;;17.88;11.43;;;4.70;94.00;;;;;;2056318;28;20106;-82
2020/12/12 01:04:36;;;;;;;16.65;11.27;;;4.70;93.90;;;;;;2040758;29;20035;-81
2020/12/12 01:05:37;;;;;;;17.55;11.65;;;4.70;93.70;;;;;;2040417;29;20027;-82
2020/12/12 01:06:37;;;;;;;16.65;11.20;;;4.70;93.70;;;;;;2050964;28;20054;-81
2020/12/12 01:07:38;;;;;;;19.95;12.80;;;4.70;93.70;;;;;;2054856;28;20035;-81
2020/12/12 01:08:39;;;;;;;18.83;13.02;;;4.70;93.70;;;;;;2053224;28;20082;-81
2020/12/12 01:09:40;;;;;;;17.60;12.32;;;4.70;93.70;;;;;;2053738;28;20061;-81
2020/12/12 01:10:41;;;;;;;17.95;12.15;;;4.70;93.70;;;;;;2041515;28;20407;-81
2020/12/12 01:11:41;;;;;;;16.88;11.60;;;4.70;93.70;;;;;;2037199;29;20040;-81
2020/12/12 01:12:42;;;;;;;16.80;11.65;;;4.70;93.70;;;;;;2047425;28;20045;-80
2020/12/12 01:13:42;;;;;;;16.42;11.27;;;4.70;93.70;;;;;;2056342;28;20501;-81
2020/12/12 01:14:43;;;;;;;17.58;11.85;;;4.70;93.70;;;;;;2048113;29;20039;-81
2020/12/12 01:15:45;;;;;;;16.90;11.48;;;4.70;93.70;;;;;;2038768;29;20503;-81
2020/12/12 01:16:45;;;;;;;17.58;11.80;;;4.70;93.70;;;;;;2043038;28;20035;-81
2020/12/12 01:17:46;;;;;;;16.38;11.20;;;4.80;94.00;;;;;;2056817;28;20405;-81
2020/12/12 01:18:46;;;;;;;21.25;14.20;;;4.80;93.70;;;;;;2054733;28;20049;-81
2020/12/12 01:19:47;;;;;;;17.05;11.98;;;4.70;93.70;;;;;;2048759;28;20023;-80
2020/12/12 01:20:48;;;;;;;19.55;12.80;;;4.70;93.70;;;;;;2047947;28;20490;-81
2020/12/12 01:21:48;;;;;;;17.38;11.88;;;4.80;93.80;;;;;;2046685;28;20038;-81
2020/12/12 01:22:49;;;;;;;23.15;14.15;;;4.70;93.70;;;;;;2044438;29;20497;-80
2020/12/12 01:23:49;;;;;;;21.50;14.30;;;4.70;93.70;;;;;;2054800;28;20027;-81
2020/12/12 01:24:50;;;;;;;18.65;12.95;;;4.80;93.80;;;;;;2050088;28;20038;-80
2020/12/12 01:25:51;;;;;;;18.92;12.98;;;4.80;93.80;;;;;;2055506;28;20073;-80
2020/12/12 01:26:51;;;;;;;17.00;12.05;;;4.70;93.70;;;;;;2047770;28;20043;-81
2020/12/12 01:27:52;;;;;;;16.48;11.77;;;4.70;93.70;;;;;;2049591;28;20042;-81
2020/12/12 01:28:52;;;;;;;18.70;12.18;;;4.80;93.80;;;;;;2056104;28;20437;-81
2020/12/12 01:29:53;;;;;;;18.85;12.65;;;4.80;93.80;;;;;;2039112;29;20607;-81
2020/12/12 01:30:54;;;;;;;19.70;13.35;;;4.80;93.80;;;;;;2046465;28;20406;-80
2020/12/12 01:31:54;;;;;;;18.65;12.98;;;4.80;93.80;;;;;;2053805;28;20050;-80
2020/12/12 01:32:55;;;;;;;19.75;13.40;;;4.80;93.80;;;;;;2052218;28;20041;-81
2020/12/12 01:33:55;;;;;;;18.85;12.48;;;4.80;93.80;;;;;;2049866;28;20446;-81
2020/12/12 01:34:56;;;;;;;17.95;12.30;;;4.80;93.80;;;;;;2047775;29;20520;-81
2020/12/12 01:35:57;;;;;;;19.27;12.73;;;4.80;93.80;;;;;;2047961;29;20040;-80
2020/12/12 01:36:57;;;;;;;18.45;12.43;;;4.80;93.80;;;;;;2048126;28;20023;-81
2020/12/12 01:37:58;;;;;;;18.50;12.48;;;4.80;93.80;;;;;;2048027;28;20035;-81
2020/12/12 01:38:59;;;;;;;17.50;12.07;;;4.80;94.00;;;;;;2043850;29;20167;-80
2020/12/12 01:39:59;;;;;;;21.25;14.10;;;4.80;93.70;;;;;;2040217;29;20046;-81
2020/12/12 01:41:00;;;;;;;17.60;12.35;;;4.80;93.80;;;;;;2032285;29;20417;-81
2020/12/12 01:42:01;;;;;;;18.42;11.90;;;4.80;93.70;;;;;;2040029;28;20040;-80
2020/12/12 01:43:01;;;;;;;17.70;12.20;;;4.80;93.80;;;;;;2038149;29;20164;-81
2020/12/12 01:44:02;;;;;;;18.10;11.68;;;4.80;93.80;;;;;;2048013;28;20035;-81
2020/12/12 01:45:05;;;;;;;18.58;12.98;;;4.80;93.80;;;;;;2055475;28;20130;-80
2020/12/12 01:46:06;;;;;;;19.17;12.43;;;4.80;93.80;;;;;;2055380;28;20031;-81
2020/12/12 01:47:06;;;;;;;19.98;13.18;;;4.80;93.80;;;;;;2053757;28;20070;-80
2020/12/12 01:48:08;;;;;;;18.25;12.57;;;4.80;93.80;;;;;;2053431;28;20035;-80
2020/12/12 01:49:09;;;;;;;21.30;13.95;;;4.80;93.80;;;;;;2055004;28;20133;-80
2020/12/12 01:50:09;;;;;;;18.80;12.52;;;4.80;93.80;;;;;;2047895;28;20394;-81
2020/12/12 01:51:10;;;;;;;20.65;13.73;;;4.80;93.80;;;;;;2039674;29;20102;-80
2020/12/12 01:52:11;;;;;;;19.00;13.15;;;4.80;93.80;;;;;;2055273;28;20031;-81
2020/12/12 01:53:12;;;;;;;20.30;13.23;;;4.80;93.80;;;;;;2046672;28;20081;-80
2020/12/12 01:54:14;;;;;;;20.23;13.02;;;4.80;93.80;;;;;;2048168;28;20059;-80
2020/12/12 01:55:15;;;;;;;18.55;12.02;;;4.80;93.80;;;;;;2047455;28;20032;-80
2020/12/12 01:56:17;;;;;;;18.50;12.23;;;4.80;93.80;;;;;;2047665;29;20047;-80
2020/12/12 01:57:20;;;;;;;17.88;12.15;;;4.80;93.80;;;;;;2052422;28;20031;-81
2020/12/12 01:58:21;;;;;;;18.77;12.57;;;4.80;93.80;;;;;;2053556;28;20033;-80
2020/12/12 01:59:21;;;;;;;18.08;12.38;;;4.80;93.80;;;;;;2046755;28;20031;-80
2020/12/12 02:00:23;;;;;;;20.55;13.75;;;4.80;93.80;;;;;;2046986;28;20020;-80
2020/12/12 02:01:27;;;;;;;21.50;13.80;;;4.80;93.80;;;;;;2052163;28;20027;-81
2020/12/12 02:02:28;;;;;;;20.67;13.15;;;4.80;93.80;;;;;;2047617;28;20035;-81
2020/12/12 02:03:35;;;;;;;20.77;13.70;;;4.80;93.80;;;;;;2048618;28;20027;-81
2020/12/12 02:04:39;;;;;;;17.92;12.10;;;4.80;93.80;;;;;;2055621;28;20046;-81
2020/12/12 02:05:45;;;;;;;19.45;13.02;;;4.80;93.80;;;;;;2058718;28;20401;-81
2020/12/12 02:06:45;;;;;;;20.98;12.85;;;4.80;93.80;;;;;;2057205;28;20094;-80
2020/12/12 02:07:46;;;;;;;19.95;12.75;;;4.80;93.80;;;;;;2042208;29;20059;-81
2020/12/12 02:08:52;;;;;;;19.30;12.95;;;4.80;93.80;;;;;;2046932;29;20053;-81
2020/12/12 02:09:54;;;;;;;21.33;13.55;;;4.80;93.80;;;;;;2063696;28;20047;-80
2020/12/12 02:10:56;;;;;;;19.73;12.90;;;4.80;93.80;;;;;;2049660;28;20031;-81
2020/12/12 02:11:58;;;;;;;19.50;12.43;;;4.80;93.80;;;;;;2049628;28;20038;-81
2020/12/12 02:12:59;;;;;;;18.95;12.27;;;4.80;93.80;;;;;;2050736;28;20039;-80
2020/12/12 02:13:59;;;;;;;18.45;12.52;;;4.80;93.80;;;;;;2057984;28;20038;-80
2020/12/12 02:15:00;;;;;;;20.73;12.95;;;4.80;93.80;;;;;;2056763;28;20118;-80
2020/12/12 02:16:01;;;;;;;19.52;13.38;;;4.80;93.80;;;;;;2048934;29;20441;-81
2020/12/12 02:17:03;;;;;;;17.08;11.60;;;4.90;93.80;;;;;;2033639;29;20124;-80
2020/12/12 02:18:21;;;;;;;18.67;12.57;;;4.90;93.90;;;;;;2049143;28;20038;-80
2020/12/12 02:19:22;;;;;;;18.63;12.25;;;4.80;93.80;;;;;;2056849;28;20568;-81
2020/12/12 02:20:23;;;;;;;21.25;13.68;;;4.80;93.80;;;;;;2057885;28;20042;-81
2020/12/12 02:21:25;;;;;;;18.17;12.98;;;4.90;93.80;;;;;;2053577;28;20023;-81
2020/12/12 02:22:26;;;;;;;21.45;13.90;;;4.90;93.80;;;;;;2047259;28;20038;-81
2020/12/12 02:23:28;;;;;;;21.20;13.85;;;4.80;93.80;;;;;;2049616;28;20051;-81
2020/12/12 02:24:33;;;;;;;20.40;12.68;;;4.80;94.10;;;;;;2053808;28;20346;-81
2020/12/12 02:25:34;;;;;;;18.13;11.95;;;4.90;93.90;;;;;;2049772;28;20073;-82
2020/12/12 02:26:34;;;;;;;19.33;12.73;;;4.90;93.80;;;;;;2047541;28;20409;-81
2020/12/12 02:27:35;;;;;;;19.15;12.85;;;4.90;93.90;;;;;;2039773;29;20494;-81
2020/12/12 02:29:48;;;;;;;17.80;12.38;;;4.80;93.80;;;;;;2054902;28;20031;-81
2020/12/12 02:30:49;;;;;;;19.17;11.95;;;4.80;93.80;;;;;;2044929;28;20026;-81
2020/12/12 02:31:49;;;;;;;19.98;12.40;;;4.90;93.90;;;;;;2044330;28;20035;-81
2020/12/12 02:32:50;;;;;;;18.65;12.40;;;4.90;93.90;;;;;;2055225;28;20026;-81
2020/12/12 02:33:51;;;;;;;18.75;12.48;;;4.90;93.90;;;;;;2042664;28;20036;-81
2020/12/12 02:34:51;;;;;;;19.20;12.10;;;4.90;93.90;;;;;;2047545;29;20054;-81
2020/12/12 02:35:54;;;;;;;20.48;13.70;;;4.90;93.90;;;;;;2057353;28;20511;-81
2020/12/12 02:36:54;;;;;;;21.02;13.63;;;4.90;94.10;;;;;;2057203;28;20444;-81
2020/12/12 02:37:55;;;;;;;19.40;13.23;;;4.90;93.90;;;;;;2048533;29;20035;-81
2020/12/12 02:38:56;;;;;;;18.17;12.70;;;4.90;93.90;;;;;;2034083;29;20036;-81
2020/12/12 02:39:56;;;;;;;22.65;14.30;;;4.90;93.90;;;;;;2039955;29;20035;-81
2020/12/12 02:40:57;;;;;;;19.30;13.00;;;4.90;93.90;;;;;;2048490;28;20087;-81
2020/12/12 02:41:58;;;;;;;18.65;12.68;;;4.90;93.90;;;;;;2045519;28;20028;-81
2020/12/12 02:42:59;;;;;;;20.63;13.95;;;4.90;93.90;;;;;;2046397;28;20122;-81
2020/12/12 02:43:59;;;;;;;20.20;13.13;;;4.90;93.90;;;;;;2042149;29;20054;-81
2020/12/12 02:45:00;;;;;;;17.88;12.25;;;4.90;93.90;;;;;;2046888;28;20035;-81
2020/12/12 02:46:01;;;;;;;17.45;12.38;;;4.90;93.90;;;;;;2045930;28;20102;-81
2020/12/12 02:47:02;;;;;;;18.90;12.90;;;4.90;93.90;;;;;;2048945;28;20027;-81
2020/12/12 02:48:02;;;;;;;17.90;12.32;;;4.90;94.10;;;;;;2047298;29;20366;-81
2020/12/12 02:49:03;;;;;;;20.90;13.60;;;4.90;93.90;;;;;;2047658;28;20390;-81
2020/12/12 02:50:08;;;;;;;18.88;12.93;;;4.90;93.90;;;;;;2056463;28;20082;-81
2020/12/12 02:51:08;;;;;;;19.40;12.65;;;4.90;93.90;;;;;;2057188;28;20021;-81
2020/12/12 02:52:09;;;;;;;18.05;12.13;;;4.90;93.90;;;;;;2050127;28;20042;-81
2020/12/12 02:53:10;;;;;;;17.90;12.32;;;4.90;93.90;;;;;;2051350;28;20051;-81
2020/12/12 02:54:11;;;;;;;19.42;12.68;;;4.90;93.90;;;;;;2053819;28;20387;-81
2020/12/12 02:55:11;;;;;;;16.92;11.80;;;4.90;93.90;;;;;;2049810;28;20114;-81
2020/12/12 02:56:16;;;;;;;17.77;12.60;;;4.90;93.90;;;;;;2050235;28;20047;-81
2020/12/12 02:57:16;;;;;;;19.17;12.55;;;4.90;93.90;;;;;;2042740;28;20418;-82
2020/12/12 02:58:17;;;;;;;18.10;12.48;;;4.90;93.90;;;;;;2051556;28;20047;-81
2020/12/12 02:59:18;;;;;;;19.98;12.93;;;5.00;93.90;;;;;;2040956;29;20028;-81
2020/12/12 03:00:21;;;;;;;19.13;13.45;;;4.90;93.90;;;;;;2042241;29;20035;-81
2020/12/12 03:01:22;;;;;;;19.30;12.98;;;4.90;93.90;;;;;;2056526;28;20066;-81
2020/12/12 03:02:22;;;;;;;18.95;12.73;;;4.90;93.90;;;;;;2040745;29;20039;-81
2020/12/12 03:03:23;;;;;;;18.83;12.27;;;4.90;93.90;;;;;;2041301;28;20040;-81
2020/12/12 03:04:24;;;;;;;17.75;11.73;;;4.90;93.90;;;;;;2039337;29;20027;-81
2020/12/12 03:05:24;;;;;;;18.63;12.13;;;4.90;93.90;;;;;;2041151;29;20426;-82
2020/12/12 03:06:25;;;;;;;17.30;11.88;;;4.90;93.90;;;;;;2043158;28;20031;-81
2020/12/12 03:07:26;;;;;;;18.85;11.88;;;5.00;93.90;;;;;;2042380;29;20036;-81
2020/12/12 03:08:27;;;;;;;18.25;11.82;;;5.00;93.90;;;;;;2046688;28;20648;-81
2020/12/12 03:09:27;;;;;;;16.48;11.35;;;5.00;93.90;;;;;;2056653;28;20389;-81
2020/12/12 03:10:28;;;;;;;16.60;11.50;;;4.90;93.90;;;;;;2044195;29;20032;-81
2020/12/12 03:11:28;;;;;;;17.85;11.95;;;4.90;93.90;;;;;;2053812;28;20121;-81
2020/12/12 03:12:29;;;;;;;17.85;11.90;;;5.00;93.90;;;;;;2042995;29;20435;-81
2020/12/12 03:13:30;;;;;;;19.67;11.95;;;5.00;93.90;;;;;;2048938;28;20035;-81
2020/12/12 03:14:31;;;;;;;20.50;13.15;;;5.00;93.90;;;;;;2049496;28;20023;-81
2020/12/12 03:15:31;;;;;;;18.48;12.00;;;4.90;93.90;;;;;;2043025;28;20118;-81
2020/12/12 03:16:32;;;;;;;16.92;11.68;;;5.00;93.90;;;;;;2048879;28;20037;-81
2020/12/12 03:17:32;;;;;;;16.45;11.25;;;5.00;93.90;;;;;;2050506;28;20421;-81
2020/12/12 03:18:33;;;;;;;20.52;12.85;;;5.00;93.90;;;;;;2046915;29;20409;-81
2020/12/12 03:19:34;;;;;;;16.42;10.95;;;5.00;93.90;;;;;;2034995;29;20076;-81
2020/12/12 03:20:34;;;;;;;17.88;11.43;;;5.00;93.90;;;;;;2038967;29;20046;-81
2020/12/12 03:21:35;;;;;;;16.42;11.38;;;5.00;93.90;;;;;;2050716;28;20023;-81
2020/12/12 03:22:35;;;;;;;17.55;11.52;;;5.00;93.90;;;;;;2048803;28;20039;-81
2020/12/12 03:23:36;;;;;;;18.40;11.85;;;5.00;93.90;;;;;;2032411;29;20160;-81
2020/12/12 03:24:37;;;;;;;18.58;11.80;;;5.00;93.90;;;;;;2040536;29;20135;-81
2020/12/12 03:25:39;;;;;;;17.52;11.73;;;5.00;93.90;;;;;;2049118;28;20043;-81
2020/12/12 03:26:39;;;;;;;16.98;11.10;;;5.00;93.90;;;;;;2055925;28;20042;-81
2020/12/12 03:27:40;;;;;;;20.92;13.10;;;5.00;93.90;;;;;;2056765;28;20045;-80
2020/12/12 03:28:40;;;;;;;17.92;11.85;;;5.00;93.90;;;;;;2053354;28;22136;-81
2020/12/12 03:29:41;;;;;;;16.75;11.43;;;5.00;93.90;;;;;;2046067;28;20039;-81
2020/12/12 03:30:42;;;;;;;17.85;11.95;;;5.00;93.90;;;;;;2040635;29;20175;-81
2020/12/12 03:31:42;;;;;;;19.00;12.23;;;5.00;93.90;;;;;;2035951;29;20035;-81
2020/12/12 03:32:43;;;;;;;17.65;11.40;;;5.00;93.90;;;;;;2056825;28;20066;-81
2020/12/12 03:33:43;;;;;;;18.70;11.93;;;5.00;93.90;;;;;;2048669;28;20031;-80
2020/12/12 03:34:44;;;;;;;18.38;12.25;;;5.00;93.90;;;;;;2032752;29;20037;-81
2020/12/12 03:35:45;;;;;;;17.90;11.70;;;5.00;93.90;;;;;;2048956;28;20719;-81
2020/12/12 03:36:46;;;;;;;19.88;12.18;;;5.00;93.90;;;;;;2052245;28;20130;-81
2020/12/12 03:37:46;;;;;;;16.95;11.25;;;5.00;93.90;;;;;;2049602;28;20371;-80
2020/12/12 03:38:47;;;;;;;17.15;11.15;;;5.00;93.90;;;;;;2052122;28;20118;-81
2020/12/12 03:39:47;;;;;;;18.13;11.88;;;5.00;93.90;;;;;;2055888;28;20039;-81
2020/12/12 03:40:48;;;;;;;17.17;11.63;;;5.10;93.90;;;;;;2047502;29;20114;-81
2020/12/12 03:41:49;;;;;;;17.67;11.57;;;5.10;93.90;;;;;;2054570;28;20027;-81
2020/12/12 03:42:53;;;;;;;18.20;11.70;;;5.00;93.90;;;;;;2057446;28;20126;-81
2020/12/12 03:43:53;;;;;;;17.13;11.35;;;5.00;93.90;;;;;;2057145;28;20481;-81
2020/12/12 03:44:54;;;;;;;18.75;12.00;;;5.10;93.90;;;;;;2054457;28;20042;-81
2020/12/12 03:45:54;;;;;;;19.58;12.85;;;5.00;93.90;;;;;;2056487;28;20027;-81
2020/12/12 03:46:55;;;;;;;17.45;11.82;;;5.00;93.90;;;;;;2040897;29;20044;-81
2020/12/12 03:47:56;;;;;;;20.05;12.95;;;5.00;93.90;;;;;;2048127;28;20027;-81
2020/12/12 03:48:57;;;;;;;17.88;11.98;;;5.10;93.90;;;;;;2056708;28;20101;-81
2020/12/12 03:49:57;;;;;;;19.92;13.30;;;5.10;93.90;;;;;;2051389;28;20086;-81
2020/12/12 03:50:58;;;;;;;20.08;12.82;;;5.00;93.90;;;;;;2048883;28;20524;-81
2020/12/12 03:51:59;;;;;;;17.13;11.50;;;5.00;93.90;;;;;;2052676;28;20026;-81
2020/12/12 03:53:00;;;;;;;16.55;11.60;;;5.00;93.90;;;;;;2055023;28;20093;-80
2020/12/12 03:54:00;;;;;;;17.33;11.82;;;5.00;93.90;;;;;;2056789;28;20027;-81
2020/12/12 03:55:01;;;;;;;16.80;11.32;;;5.10;93.90;;;;;;2036302;29;20526;-81
2020/12/12 03:56:02;;;;;;;23.50;14.48;;;5.10;93.90;;;;;;2029959;29;20024;-80
2020/12/12 03:57:04;;;;;;;18.10;12.10;;;5.10;93.90;;;;;;2048736;28;20122;-81
2020/12/12 03:58:04;;;;;;;16.77;11.30;;;5.00;93.90;;;;;;2042525;28;20034;-80
2020/12/12 03:59:05;;;;;;;18.55;12.88;;;5.00;93.90;;;;;;2044884;28;20031;-80
2020/12/12 04:00:06;;;;;;;23.65;14.70;;;5.00;93.90;;;;;;2057411;28;20026;-80
2020/12/12 04:01:07;;;;;;;17.55;12.93;;;5.10;93.90;;;;;;2054861;28;20124;-80
2020/12/12 04:02:07;;;;;;;18.58;12.88;;;5.10;93.90;;;;;;2048741;28;20028;-80
2020/12/12 04:03:08;;;;;;;17.88;12.07;;;5.00;93.90;;;;;;2056441;28;20058;-81
2020/12/12 04:04:08;;;;;;;17.83;12.43;;;5.00;93.90;;;;;;2047942;29;20023;-80
2020/12/12 04:05:10;;;;;;;18.10;12.20;;;5.00;93.90;;;;;;2047932;29;20035;-81
2020/12/12 04:06:10;;;;;;;16.90;11.80;;;5.10;93.90;;;;;;2045190;29;20027;-81
2020/12/12 04:07:11;;;;;;;17.80;11.95;;;5.10;93.90;;;;;;2039930;29;20061;-80
2020/12/12 04:08:12;;;;;;;19.45;12.30;;;5.10;93.90;;;;;;2055962;28;20050;-80
2020/12/12 04:09:13;;;;;;;16.67;11.48;;;5.10;93.90;;;;;;2053355;28;20058;-81
2020/12/12 04:10:13;;;;;;;15.82;10.68;;;5.10;93.90;;;;;;2056361;28;20442;-81
2020/12/12 04:11:15;;;;;;;16.02;10.95;;;5.10;93.90;;;;;;2056188;28;20122;-81
2020/12/12 04:12:15;;;;;;;18.63;12.45;;;5.10;94.00;;;;;;2051574;28;20027;-81
2020/12/12 04:13:16;;;;;;;18.48;12.25;;;5.10;94.00;;;;;;2047884;29;20032;-81
2020/12/12 04:14:16;;;;;;;17.00;11.40;;;5.10;93.90;;;;;;2058579;28;20466;-81
2020/12/12 04:15:17;;;;;;;17.23;11.70;;;5.10;93.90;;;;;;2049231;29;20161;-79
2020/12/12 04:16:18;;;;;;;16.10;10.98;;;5.10;93.90;;;;;;2050245;28;20035;-80
2020/12/12 04:17:18;;;;;;;15.93;11.43;;;5.10;93.90;;;;;;2063293;28;20050;-80
2020/12/12 04:18:19;;;;;;;17.83;11.95;;;5.10;93.90;;;;;;2062806;28;20127;-80
2020/12/12 04:19:19;;;;;;;16.08;10.82;;;5.10;93.90;;;;;;2063064;28;20500;-80
2020/12/12 04:20:20;;;;;;;16.70;11.88;;;5.10;93.90;;;;;;2062736;28;20033;-80
2020/12/12 04:21:21;;;;;;;16.02;11.48;;;5.10;93.90;;;;;;2053695;28;20053;-80
2020/12/12 04:22:21;;;;;;;17.13;11.15;;;5.10;93.90;;;;;;2059154;28;20027;-80
2020/12/12 04:23:22;;;;;;;19.40;12.63;;;5.10;94.00;;;;;;2043968;29;20027;-81
2020/12/12 04:24:23;;;;;;;18.25;12.52;;;5.10;94.00;;;;;;2041221;29;20398;-81
2020/12/12 04:25:23;;;;;;;18.70;12.00;;;5.10;93.90;;;;;;2055668;28;20058;-82
2020/12/12 04:26:24;;;;;;;18.88;12.25;;;5.10;94.00;;;;;;2054805;28;20061;-81
2020/12/12 04:27:25;;;;;;;19.33;12.73;;;5.10;94.00;;;;;;2061309;28;20035;-81
2020/12/12 04:28:25;;;;;;;19.40;13.30;;;5.10;94.00;;;;;;2065667;28;20041;-81
2020/12/12 04:29:26;;;;;;;18.55;12.70;;;5.10;94.00;;;;;;2063618;28;20099;-80
2020/12/12 04:30:27;;;;;;;20.23;13.73;;;5.10;94.00;;;;;;2051139;29;20039;-81
2020/12/12 04:31:27;;;;;;;18.98;13.13;;;5.10;94.00;;;;;;2039787;29;20051;-81
2020/12/12 04:32:28;;;;;;;19.55;12.60;;;5.10;94.00;;;;;;2039767;29;20044;-80
2020/12/12 04:33:28;;;;;;;17.33;11.90;;;5.10;94.00;;;;;;2040623;29;20102;-80
2020/12/12 04:34:29;;;;;;;18.60;12.82;;;5.10;94.00;;;;;;2041993;28;20087;-81
2020/12/12 04:35:30;;;;;;;18.10;11.98;;;5.10;94.00;;;;;;2055418;28;20528;-80
2020/12/12 04:36:32;;;;;;;17.65;11.90;;;5.10;94.00;;;;;;2055147;28;20092;-81
2020/12/12 04:37:33;;;;;;;16.90;11.40;;;5.10;94.00;;;;;;2056482;28;20031;-81
2020/12/12 04:38:36;;;;;;;17.83;12.13;;;5.10;94.00;;;;;;2056406;28;20077;-81
2020/12/12 04:39:36;;;;;;;19.05;12.35;;;5.10;94.00;;;;;;2055690;28;20023;-80
2020/12/12 04:40:37;;;;;;;17.92;12.38;;;5.10;94.00;;;;;;2046455;29;20055;-80
2020/12/12 04:41:41;;;;;;;17.70;11.57;;;5.10;94.00;;;;;;2048142;29;20398;-80
2020/12/12 04:42:42;;;;;;;17.00;11.23;;;5.10;94.00;;;;;;2048938;28;20410;-81
2020/12/12 04:43:44;;;;;;;16.23;11.27;;;5.10;94.30;;;;;;2057083;28;20038;-81
2020/12/12 04:44:45;;;;;;;17.23;11.27;;;5.10;94.00;;;;;;2056561;28;20026;-81
2020/12/12 04:45:48;;;;;;;14.82;10.43;;;5.10;94.00;;;;;;2048650;28;20042;-80
2020/12/12 04:46:50;;;;;;;17.65;11.02;;;5.10;94.00;;;;;;2049682;28;20030;-80
2020/12/12 04:47:50;;;;;;;16.15;10.57;;;5.20;94.00;;;;;;2061071;28;20035;-80
2020/12/12 04:48:51;;;;;;;16.60;11.20;;;5.20;94.00;;;;;;2053564;28;20027;-80
2020/12/12 04:49:52;;;;;;;16.98;11.43;;;5.20;94.00;;;;;;2056330;28;20434;-80
2020/12/12 04:50:54;;;;;;;17.85;11.02;;;5.20;94.00;;;;;;2053143;28;20393;-80
2020/12/12 04:51:55;;;;;;;17.45;11.50;;;5.10;94.00;;;;;;2056398;28;20027;-80
2020/12/12 04:53:11;;;;;;;17.33;11.65;;;5.20;94.00;;;;;;2055423;28;20034;-81
2020/12/12 04:54:14;;;;;;;17.75;11.88;;;5.20;94.00;;;;;;2055169;28;20625;-80
2020/12/12 04:55:15;;;;;;;17.67;12.02;;;5.20;94.00;;;;;;2053212;28;20031;-81
2020/12/12 04:56:23;;;;;;;16.13;11.30;;;5.20;94.00;;;;;;2050118;28;20035;-80
2020/12/12 04:57:23;;;;;;;18.90;12.15;;;5.20;94.00;;;;;;2053255;28;20023;-80
2020/12/12 04:58:25;;;;;;;20.05;12.63;;;5.20;94.00;;;;;;2056001;28;20057;-80
2020/12/12 04:59:29;;;;;;;18.13;11.90;;;5.20;94.00;;;;;;2052791;28;20398;-81
2020/12/12 05:00:30;;;;;;;18.10;12.13;;;5.20;94.00;;;;;;2050687;28;20078;-79
2020/12/12 05:01:32;;;;;;;17.75;12.02;;;5.20;94.00;;;;;;2051116;28;20023;-80
2020/12/12 05:02:33;;;;;;;19.52;12.48;;;5.20;94.00;;;;;;2048335;28;20035;-81
2020/12/12 05:03:36;;;;;;;19.13;12.95;;;5.20;94.00;;;;;;2045713;28;20577;-80
2020/12/12 05:04:36;;;;;;;20.50;12.70;;;5.20;94.00;;;;;;2047668;28;20028;-80
2020/12/12 05:05:37;;;;;;;20.23;13.00;;;5.20;94.00;;;;;;2045300;29;20098;-80
2020/12/12 05:06:38;;;;;;;19.05;13.35;;;5.20;94.00;;;;;;2031602;29;20379;-80
2020/12/12 05:07:38;;;;;;;21.98;14.45;;;5.20;94.00;;;;;;2040287;29;20035;-80
2020/12/12 05:08:39;;;;;;;20.67;14.55;;;5.20;94.00;;;;;;2055068;28;20113;-79
2020/12/12 05:09:39;;;;;;;20.27;13.43;;;5.20;94.00;;;;;;2055404;28;20126;-80
2020/12/12 05:10:45;;;;;;;20.83;13.18;;;5.20;94.00;;;;;;2054265;28;20454;-80
2020/12/12 05:11:47;;;;;;;19.98;13.40;;;5.20;94.00;;;;;;2048795;28;20050;-81
2020/12/12 05:12:48;;;;;;;19.80;12.90;;;5.20;94.00;;;;;;2055907;28;20110;-80
2020/12/12 05:13:49;;;;;;;19.10;12.98;;;5.20;94.30;;;;;;2055765;28;20141;-80
2020/12/12 05:14:51;;;;;;;18.63;13.07;;;5.20;94.00;;;;;;2052882;28;20027;-80